Etusivu
METAR-TAF:

METAR-TAF

Lentoasemat :

Tonopah Airport

Tonopah, Nevada, Yhdysvallat

Leveyspiiri: 38-03-37N, Pituuspiiri: 117-05-14W, korkeus merenpinnasta: 1654 m

Tämänhetkinen sää

Tämä raportti tehtiin 25 minuuttia sitten, kello 10.56 UTC
Tuuli 8 kn pohjoisesta
Lämpötila -1°C
Kosteus 80%
Ilmanpaine 1020 hPa
Näkyvyys: 16.1 km
selkeää

METAR: KTPH 251056Z AUTO 35008KT 10SM CLR M01/M04 A3013 RMK AO2 SLP189 T10111044

Aika: 03:21 (11:21 UTC)

Sääennuste

Tämä raportti tehtiin 6 tuntia ja 1 minuuttia sitten, kello 05.20 UTC
Ennuste voimassa 25. päivästä klo 06 UTC - 26. päivään klo 06 UTC
Tuuli 5 kn eri suunnista
Näkyvyys: 10 km
selkeää
From 25. päivästä klo 2000 UTC
Tuuli 10 kn etelästä/lounaasta
Näkyvyys: 10 km
selkeää

TAF: KTPH 250520Z 2506/2606 VRB05KT P6SM SKC FM252000 20010KT P6SM SKC

Säähavainnot ja -ennusteet yli 4000 lentoasemalta (METAR- ja TAF-raportit).

Käytössä olevat sääasemat on merkitty karttaan keltaisilla ja punaisilla pisteillä.

Aseta hiiri pisteen päälle nähdäksesi sääaseman nimen.

Klikkaa sitten nähdäksesi säähavainnot ja -ennusteet.

Kartan vaihtaminen: klikkaa mustalla rastilla varustettuja vihreitä pisteitä, niin voit zoomata sisään; viivalla varustettua vihreää pistettä, niin voit zoomata ulos tai vihreitä nuolia, niin pääset viereisille kartoille.


METAR-TAF: